Terminal Aerodrome Forecast
Issued by NWS

Home | Current Version | Previous Version | Text Only | Print | Product List | Glossary On
Versions: 1 2 3 4 5 6 7 8 9 10 11 12 13
600
FTUS43 KIWX 291130
TAFSBN
TAF
KSBN 291130Z 2912/3012 03005KT P6SM OVC070
     FM291700 05011KT 5SM -SHRA BR OVC020
     FM292200 07014G22KT 4SM SHRA VCTS OVC015CB
     FM300300 09012KT 6SM SHRA OVC010=

USA.gov is the U.S. government's official web portal to all federal, state and local government web resources and services.